Milwaukee, Wisconsin
Traffic Map
Current Weather Conditions
Milwaukee, Wisconsin
Broken Clouds
Broken Clouds
56°
Feels Like: 56°
Wind Chill: 56° Ceiling: 7500
Heat Index: 56° Visibility: 10mi
Dew Point: 44° Wind: 20mph
Humidity: 64% Direction: 300° (WNW)
Pressure: 29.55in Gusts: 26mph
Raw Report DataKMKE 250452Z 30017G23KT 10SM FEW048 BKN075 13/07 A2955 RMK AO2 RAE34 SLP005 P0000 T01330067
Traffic Incident Summary
Active as of:
Severity:
Category:
InformationThere was an issue retrieving the traffic information for this location. Please try a different location or try again shortly.
Advertisements